sensor_id;sensor_type;location;lat;lon;timestamp;P1;durP1;ratioP1;P2;durP2;ratioP2
26325;SDS011;14032;52.510;7.342;2022-10-16T00:01:08;7.78;;;1.85;;
26325;SDS011;14032;52.510;7.342;2022-10-16T00:03:36;7.30;;;2.17;;
26325;SDS011;14032;52.510;7.342;2022-10-16T00:06:02;5.55;;;2.10;;
26325;SDS011;14032;52.510;7.342;2022-10-16T00:08:29;4.85;;;1.90;;
26325;SDS011;14032;52.510;7.342;2022-10-16T00:10:58;6.55;;;1.85;;
26325;SDS011;14032;52.510;7.342;2022-10-16T00:13:29;4.25;;;1.85;;
26325;SDS011;14032;52.510;7.342;2022-10-16T00:15:56;9.73;;;1.95;;
26325;SDS011;14032;52.510;7.342;2022-10-16T00:18:23;9.60;;;2.45;;
26325;SDS011;14032;52.510;7.342;2022-10-16T00:20:49;5.70;;;1.83;;
26325;SDS011;14032;52.510;7.342;2022-10-16T00:23:15;9.07;;;2.30;;
26325;SDS011;14032;52.510;7.342;2022-10-16T00:25:41;10.98;;;1.90;;
26325;SDS011;14032;52.510;7.342;2022-10-16T00:28:06;3.88;;;1.75;;
26325;SDS011;14032;52.510;7.342;2022-10-16T00:30:32;9.73;;;2.15;;
26325;SDS011;14032;52.510;7.342;2022-10-16T00:32:58;3.67;;;1.70;;
26325;SDS011;14032;52.510;7.342;2022-10-16T00:35:23;10.77;;;2.10;;
26325;SDS011;14032;52.510;7.342;2022-10-16T00:37:49;8.10;;;1.65;;
26325;SDS011;14032;52.510;7.342;2022-10-16T00:40:14;5.40;;;1.73;;
26325;SDS011;14032;52.510;7.342;2022-10-16T00:42:40;10.02;;;1.67;;
26325;SDS011;14032;52.510;7.342;2022-10-16T00:45:06;7.78;;;1.80;;
26325;SDS011;14032;52.510;7.342;2022-10-16T00:47:34;6.13;;;1.77;;
26325;SDS011;14032;52.510;7.342;2022-10-16T00:50:16;6.97;;;1.55;;
26325;SDS011;14032;52.510;7.342;2022-10-16T00:52:50;7.60;;;2.42;;
26325;SDS011;14032;52.510;7.342;2022-10-16T00:55:16;4.55;;;1.85;;
26325;SDS011;14032;52.510;7.342;2022-10-16T00:57:43;4.97;;;1.40;;
26325;SDS011;14032;52.510;7.342;2022-10-16T01:00:10;4.50;;;1.50;;
26325;SDS011;14032;52.510;7.342;2022-10-16T01:02:37;7.22;;;1.67;;
26325;SDS011;14032;52.510;7.342;2022-10-16T01:05:03;7.97;;;2.10;;
26325;SDS011;14032;52.510;7.342;2022-10-16T01:10:06;13.07;;;2.38;;
26325;SDS011;14032;52.510;7.342;2022-10-16T01:17:58;5.82;;;2.15;;
26325;SDS011;14032;52.510;7.342;2022-10-16T01:20:31;4.32;;;1.83;;
26325;SDS011;14032;52.510;7.342;2022-10-16T01:28:41;7.55;;;2.45;;
26325;SDS011;14032;52.510;7.342;2022-10-16T01:31:29;5.18;;;2.20;;
26325;SDS011;14032;52.510;7.342;2022-10-16T01:34:00;10.27;;;1.95;;
26325;SDS011;14032;52.510;7.342;2022-10-16T01:36:35;5.28;;;2.00;;
26325;SDS011;14032;52.510;7.342;2022-10-16T01:39:04;7.75;;;2.28;;
26325;SDS011;14032;52.510;7.342;2022-10-16T01:41:34;8.63;;;2.42;;
26325;SDS011;14032;52.510;7.342;2022-10-16T01:44:07;6.38;;;2.00;;
26325;SDS011;14032;52.510;7.342;2022-10-16T01:46:39;9.15;;;2.38;;
26325;SDS011;14032;52.510;7.342;2022-10-16T01:49:06;10.43;;;2.28;;
26325;SDS011;14032;52.510;7.342;2022-10-16T01:51:33;6.47;;;2.22;;
26325;SDS011;14032;52.510;7.342;2022-10-16T01:54:02;6.32;;;2.15;;
26325;SDS011;14032;52.510;7.342;2022-10-16T01:56:31;5.38;;;2.13;;
26325;SDS011;14032;52.510;7.342;2022-10-16T01:59:11;8.18;;;2.50;;
26325;SDS011;14032;52.510;7.342;2022-10-16T02:01:40;8.50;;;2.60;;
26325;SDS011;14032;52.510;7.342;2022-10-16T02:04:15;7.82;;;2.42;;
26325;SDS011;14032;52.510;7.342;2022-10-16T02:06:56;5.22;;;2.08;;
26325;SDS011;14032;52.510;7.342;2022-10-16T02:09:22;7.72;;;2.60;;
26325;SDS011;14032;52.510;7.342;2022-10-16T02:11:48;7.53;;;2.70;;
26325;SDS011;14032;52.510;7.342;2022-10-16T02:14:18;7.25;;;3.40;;
26325;SDS011;14032;52.510;7.342;2022-10-16T02:16:45;8.40;;;3.00;;
26325;SDS011;14032;52.510;7.342;2022-10-16T02:19:12;6.40;;;2.60;;
26325;SDS011;14032;52.510;7.342;2022-10-16T02:21:55;11.65;;;3.33;;
26325;SDS011;14032;52.510;7.342;2022-10-16T02:27:13;8.15;;;2.70;;
26325;SDS011;14032;52.510;7.342;2022-10-16T02:29:57;12.43;;;3.28;;
26325;SDS011;14032;52.510;7.342;2022-10-16T02:32:32;10.23;;;3.40;;
26325;SDS011;14032;52.510;7.342;2022-10-16T02:34:59;10.02;;;3.95;;
26325;SDS011;14032;52.510;7.342;2022-10-16T02:37:26;10.80;;;3.75;;
26325;SDS011;14032;52.510;7.342;2022-10-16T02:39:52;7.72;;;3.50;;
26325;SDS011;14032;52.510;7.342;2022-10-16T02:42:20;9.20;;;3.55;;
26325;SDS011;14032;52.510;7.342;2022-10-16T02:44:45;10.40;;;3.35;;
26325;SDS011;14032;52.510;7.342;2022-10-16T02:47:11;13.02;;;4.47;;
26325;SDS011;14032;52.510;7.342;2022-10-16T02:49:37;9.18;;;3.90;;
26325;SDS011;14032;52.510;7.342;2022-10-16T02:52:03;8.63;;;3.53;;
26325;SDS011;14032;52.510;7.342;2022-10-16T02:54:28;8.85;;;4.00;;
26325;SDS011;14032;52.510;7.342;2022-10-16T02:56:54;8.45;;;4.13;;
26325;SDS011;14032;52.510;7.342;2022-10-16T02:59:19;11.70;;;4.50;;
26325;SDS011;14032;52.510;7.342;2022-10-16T03:01:45;9.73;;;3.97;;
26325;SDS011;14032;52.510;7.342;2022-10-16T03:04:11;10.93;;;4.38;;
26325;SDS011;14032;52.510;7.342;2022-10-16T03:06:36;9.45;;;3.95;;
26325;SDS011;14032;52.510;7.342;2022-10-16T03:09:02;9.25;;;4.07;;
26325;SDS011;14032;52.510;7.342;2022-10-16T03:11:28;8.95;;;4.03;;
26325;SDS011;14032;52.510;7.342;2022-10-16T03:13:54;9.02;;;4.28;;
26325;SDS011;14032;52.510;7.342;2022-10-16T03:16:19;8.93;;;4.32;;
26325;SDS011;14032;52.510;7.342;2022-10-16T03:18:48;12.02;;;4.75;;
26325;SDS011;14032;52.510;7.342;2022-10-16T03:21:14;6.45;;;3.70;;
26325;SDS011;14032;52.510;7.342;2022-10-16T03:23:40;6.97;;;4.03;;
26325;SDS011;14032;52.510;7.342;2022-10-16T03:26:06;9.68;;;4.75;;
26325;SDS011;14032;52.510;7.342;2022-10-16T03:28:31;9.98;;;5.05;;
26325;SDS011;14032;52.510;7.342;2022-10-16T03:30:57;11.43;;;4.88;;
26325;SDS011;14032;52.510;7.342;2022-10-16T03:33:23;8.63;;;4.68;;
26325;SDS011;14032;52.510;7.342;2022-10-16T03:35:52;7.63;;;4.38;;
26325;SDS011;14032;52.510;7.342;2022-10-16T03:38:18;7.88;;;4.18;;
26325;SDS011;14032;52.510;7.342;2022-10-16T03:40:44;7.55;;;4.10;;
26325;SDS011;14032;52.510;7.342;2022-10-16T03:43:10;7.22;;;4.20;;
26325;SDS011;14032;52.510;7.342;2022-10-16T03:45:35;7.78;;;3.95;;
26325;SDS011;14032;52.510;7.342;2022-10-16T03:48:01;10.57;;;4.20;;
26325;SDS011;14032;52.510;7.342;2022-10-16T03:50:28;8.90;;;3.58;;
26325;SDS011;14032;52.510;7.342;2022-10-16T03:52:54;7.93;;;3.78;;
26325;SDS011;14032;52.510;7.342;2022-10-16T03:55:19;10.13;;;3.40;;
26325;SDS011;14032;52.510;7.342;2022-10-16T03:57:45;6.38;;;3.30;;
26325;SDS011;14032;52.510;7.342;2022-10-16T04:00:11;7.18;;;3.60;;
26325;SDS011;14032;52.510;7.342;2022-10-16T04:02:37;10.00;;;3.60;;
26325;SDS011;14032;52.510;7.342;2022-10-16T04:05:03;6.35;;;3.33;;
26325;SDS011;14032;52.510;7.342;2022-10-16T04:07:28;6.25;;;3.00;;
26325;SDS011;14032;52.510;7.342;2022-10-16T04:09:54;7.57;;;3.45;;
26325;SDS011;14032;52.510;7.342;2022-10-16T04:12:20;7.88;;;3.17;;
26325;SDS011;14032;52.510;7.342;2022-10-16T04:14:45;7.18;;;3.20;;
26325;SDS011;14032;52.510;7.342;2022-10-16T04:17:11;8.88;;;3.22;;
26325;SDS011;14032;52.510;7.342;2022-10-16T04:19:36;10.50;;;3.55;;
26325;SDS011;14032;52.510;7.342;2022-10-16T04:22:02;6.38;;;2.63;;
26325;SDS011;14032;52.510;7.342;2022-10-16T04:24:28;5.68;;;3.20;;
26325;SDS011;14032;52.510;7.342;2022-10-16T04:26:53;8.98;;;3.97;;
26325;SDS011;14032;52.510;7.342;2022-10-16T04:29:19;8.88;;;2.83;;
26325;SDS011;14032;52.510;7.342;2022-10-16T04:31:44;6.60;;;3.25;;
26325;SDS011;14032;52.510;7.342;2022-10-16T04:34:11;6.50;;;3.05;;
26325;SDS011;14032;52.510;7.342;2022-10-16T04:36:36;6.40;;;2.88;;
26325;SDS011;14032;52.510;7.342;2022-10-16T04:39:02;10.27;;;3.30;;
26325;SDS011;14032;52.510;7.342;2022-10-16T04:41:28;5.78;;;2.88;;
26325;SDS011;14032;52.510;7.342;2022-10-16T04:43:53;5.40;;;2.60;;
26325;SDS011;14032;52.510;7.342;2022-10-16T04:46:19;4.93;;;2.40;;
26325;SDS011;14032;52.510;7.342;2022-10-16T04:48:44;4.90;;;2.67;;
26325;SDS011;14032;52.510;7.342;2022-10-16T04:51:11;9.98;;;2.78;;
26325;SDS011;14032;52.510;7.342;2022-10-16T04:53:37;6.65;;;3.10;;
26325;SDS011;14032;52.510;7.342;2022-10-16T04:56:02;5.07;;;2.58;;
26325;SDS011;14032;52.510;7.342;2022-10-16T04:58:28;7.90;;;2.83;;
26325;SDS011;14032;52.510;7.342;2022-10-16T05:00:54;6.55;;;2.38;;
26325;SDS011;14032;52.510;7.342;2022-10-16T05:03:19;6.88;;;2.38;;
26325;SDS011;14032;52.510;7.342;2022-10-16T05:05:45;5.85;;;2.83;;
26325;SDS011;14032;52.510;7.342;2022-10-16T05:08:12;4.07;;;2.47;;
26325;SDS011;14032;52.510;7.342;2022-10-16T05:10:40;6.15;;;2.80;;
26325;SDS011;14032;52.510;7.342;2022-10-16T05:13:07;6.45;;;2.75;;
26325;SDS011;14032;52.510;7.342;2022-10-16T05:15:33;7.38;;;2.65;;
26325;SDS011;14032;52.510;7.342;2022-10-16T05:17:59;3.70;;;2.80;;
26325;SDS011;14032;52.510;7.342;2022-10-16T05:20:24;5.40;;;2.72;;
26325;SDS011;14032;52.510;7.342;2022-10-16T05:22:50;7.63;;;2.78;;
26325;SDS011;14032;52.510;7.342;2022-10-16T05:25:16;8.07;;;2.58;;
26325;SDS011;14032;52.510;7.342;2022-10-16T05:27:41;4.95;;;2.65;;
26325;SDS011;14032;52.510;7.342;2022-10-16T05:30:07;4.97;;;2.67;;
26325;SDS011;14032;52.510;7.342;2022-10-16T05:32:33;8.68;;;2.70;;
26325;SDS011;14032;52.510;7.342;2022-10-16T05:34:58;4.88;;;2.60;;
26325;SDS011;14032;52.510;7.342;2022-10-16T05:37:25;4.35;;;2.55;;
26325;SDS011;14032;52.510;7.342;2022-10-16T05:39:52;5.57;;;2.20;;
26325;SDS011;14032;52.510;7.342;2022-10-16T05:42:19;5.57;;;3.00;;
26325;SDS011;14032;52.510;7.342;2022-10-16T05:44:44;5.43;;;2.40;;
26325;SDS011;14032;52.510;7.342;2022-10-16T05:47:12;4.88;;;3.08;;
26325;SDS011;14032;52.510;7.342;2022-10-16T05:49:39;10.57;;;3.00;;
26325;SDS011;14032;52.510;7.342;2022-10-16T05:52:04;9.23;;;2.80;;
26325;SDS011;14032;52.510;7.342;2022-10-16T05:54:30;5.45;;;2.78;;
26325;SDS011;14032;52.510;7.342;2022-10-16T05:56:56;4.93;;;2.70;;
26325;SDS011;14032;52.510;7.342;2022-10-16T05:59:22;5.05;;;2.55;;
26325;SDS011;14032;52.510;7.342;2022-10-16T06:01:48;3.80;;;2.70;;
26325;SDS011;14032;52.510;7.342;2022-10-16T06:04:14;6.43;;;2.97;;
26325;SDS011;14032;52.510;7.342;2022-10-16T06:06:39;5.75;;;2.63;;
26325;SDS011;14032;52.510;7.342;2022-10-16T06:09:05;7.72;;;2.92;;
26325;SDS011;14032;52.510;7.342;2022-10-16T06:11:31;8.80;;;2.70;;
26325;SDS011;14032;52.510;7.342;2022-10-16T06:13:59;5.00;;;2.50;;
26325;SDS011;14032;52.510;7.342;2022-10-16T06:16:27;7.00;;;3.00;;
26325;SDS011;14032;52.510;7.342;2022-10-16T06:18:54;6.30;;;2.78;;
26325;SDS011;14032;52.510;7.342;2022-10-16T06:21:25;5.82;;;2.75;;
26325;SDS011;14032;52.510;7.342;2022-10-16T06:23:51;8.52;;;2.42;;
26325;SDS011;14032;52.510;7.342;2022-10-16T06:26:18;6.00;;;2.83;;
26325;SDS011;14032;52.510;7.342;2022-10-16T06:28:46;7.15;;;2.40;;
26325;SDS011;14032;52.510;7.342;2022-10-16T06:31:12;7.75;;;2.35;;
26325;SDS011;14032;52.510;7.342;2022-10-16T06:33:38;5.43;;;2.40;;
26325;SDS011;14032;52.510;7.342;2022-10-16T06:36:08;7.55;;;3.10;;
26325;SDS011;14032;52.510;7.342;2022-10-16T06:38:34;3.53;;;2.25;;
26325;SDS011;14032;52.510;7.342;2022-10-16T06:41:00;4.53;;;2.40;;
26325;SDS011;14032;52.510;7.342;2022-10-16T06:43:27;5.22;;;2.15;;
26325;SDS011;14032;52.510;7.342;2022-10-16T06:45:57;3.85;;;2.15;;
26325;SDS011;14032;52.510;7.342;2022-10-16T06:48:23;6.07;;;2.15;;
26325;SDS011;14032;52.510;7.342;2022-10-16T06:50:59;8.23;;;2.50;;
26325;SDS011;14032;52.510;7.342;2022-10-16T06:53:27;6.60;;;2.50;;
26325;SDS011;14032;52.510;7.342;2022-10-16T06:55:54;4.95;;;2.20;;
26325;SDS011;14032;52.510;7.342;2022-10-16T06:58:20;4.22;;;2.20;;
26325;SDS011;14032;52.510;7.342;2022-10-16T07:00:46;5.38;;;2.08;;
26325;SDS011;14032;52.510;7.342;2022-10-16T07:03:12;9.30;;;2.13;;
26325;SDS011;14032;52.510;7.342;2022-10-16T07:05:41;4.15;;;2.22;;
26325;SDS011;14032;52.510;7.342;2022-10-16T07:08:07;6.28;;;2.50;;
26325;SDS011;14032;52.510;7.342;2022-10-16T07:10:33;3.72;;;2.10;;
26325;SDS011;14032;52.510;7.342;2022-10-16T07:12:59;4.57;;;2.17;;
26325;SDS011;14032;52.510;7.342;2022-10-16T07:15:25;6.50;;;2.00;;
26325;SDS011;14032;52.510;7.342;2022-10-16T07:17:51;6.53;;;1.90;;
26325;SDS011;14032;52.510;7.342;2022-10-16T07:20:17;4.45;;;1.92;;
26325;SDS011;14032;52.510;7.342;2022-10-16T07:22:43;5.30;;;2.38;;
26325;SDS011;14032;52.510;7.342;2022-10-16T07:28:07;4.25;;;2.03;;
26325;SDS011;14032;52.510;7.342;2022-10-16T07:30:34;3.78;;;1.70;;
26325;SDS011;14032;52.510;7.342;2022-10-16T07:33:11;10.18;;;1.88;;
26325;SDS011;14032;52.510;7.342;2022-10-16T07:35:52;8.05;;;2.45;;
26325;SDS011;14032;52.510;7.342;2022-10-16T07:38:19;3.55;;;1.60;;
26325;SDS011;14032;52.510;7.342;2022-10-16T07:40:45;5.57;;;1.77;;
26325;SDS011;14032;52.510;7.342;2022-10-16T07:43:11;4.90;;;1.70;;
26325;SDS011;14032;52.510;7.342;2022-10-16T07:45:38;3.92;;;1.65;;
26325;SDS011;14032;52.510;7.342;2022-10-16T07:48:14;5.40;;;2.03;;
26325;SDS011;14032;52.510;7.342;2022-10-16T07:50:40;5.03;;;1.63;;
26325;SDS011;14032;52.510;7.342;2022-10-16T07:53:06;6.05;;;1.83;;
26325;SDS011;14032;52.510;7.342;2022-10-16T07:55:32;12.88;;;2.30;;
26325;SDS011;14032;52.510;7.342;2022-10-16T07:57:58;7.63;;;2.00;;
26325;SDS011;14032;52.510;7.342;2022-10-16T08:00:23;4.28;;;1.67;;
26325;SDS011;14032;52.510;7.342;2022-10-16T08:02:49;7.78;;;1.48;;
26325;SDS011;14032;52.510;7.342;2022-10-16T08:05:16;6.20;;;2.20;;
26325;SDS011;14032;52.510;7.342;2022-10-16T08:07:41;4.95;;;1.90;;
26325;SDS011;14032;52.510;7.342;2022-10-16T08:10:19;6.22;;;1.83;;
26325;SDS011;14032;52.510;7.342;2022-10-16T08:12:46;8.70;;;1.60;;
26325;SDS011;14032;52.510;7.342;2022-10-16T08:15:12;5.90;;;1.73;;
26325;SDS011;14032;52.510;7.342;2022-10-16T08:17:38;6.13;;;1.75;;
26325;SDS011;14032;52.510;7.342;2022-10-16T08:20:04;5.15;;;1.92;;
26325;SDS011;14032;52.510;7.342;2022-10-16T08:22:30;5.18;;;1.75;;
26325;SDS011;14032;52.510;7.342;2022-10-16T08:24:56;6.63;;;1.85;;
26325;SDS011;14032;52.510;7.342;2022-10-16T08:27:22;7.72;;;1.70;;
26325;SDS011;14032;52.510;7.342;2022-10-16T08:29:50;5.22;;;1.80;;
26325;SDS011;14032;52.510;7.342;2022-10-16T08:32:16;5.05;;;1.48;;
26325;SDS011;14032;52.510;7.342;2022-10-16T08:34:41;6.32;;;1.95;;
26325;SDS011;14032;52.510;7.342;2022-10-16T08:37:07;5.45;;;1.80;;
26325;SDS011;14032;52.510;7.342;2022-10-16T08:39:36;2.85;;;1.50;;
26325;SDS011;14032;52.510;7.342;2022-10-16T08:47:41;6.05;;;1.60;;
26325;SDS011;14032;52.510;7.342;2022-10-16T08:50:25;13.38;;;2.13;;
26325;SDS011;14032;52.510;7.342;2022-10-16T08:52:56;6.32;;;1.50;;
26325;SDS011;14032;52.510;7.342;2022-10-16T08:55:28;8.73;;;1.83;;
26325;SDS011;14032;52.510;7.342;2022-10-16T08:58:00;4.88;;;2.00;;
26325;SDS011;14032;52.510;7.342;2022-10-16T09:00:26;8.50;;;1.63;;
26325;SDS011;14032;52.510;7.342;2022-10-16T09:02:53;4.40;;;1.70;;
26325;SDS011;14032;52.510;7.342;2022-10-16T09:08:20;7.18;;;1.92;;
26325;SDS011;14032;52.510;7.342;2022-10-16T09:11:15;6.97;;;1.58;;
26325;SDS011;14032;52.510;7.342;2022-10-16T09:17:20;9.52;;;1.60;;
26325;SDS011;14032;52.510;7.342;2022-10-16T09:22:53;7.82;;;1.33;;
26325;SDS011;14032;52.510;7.342;2022-10-16T09:25:42;10.10;;;1.75;;
26325;SDS011;14032;52.510;7.342;2022-10-16T09:28:09;5.18;;;1.30;;
26325;SDS011;14032;52.510;7.342;2022-10-16T09:30:35;5.28;;;0.90;;
26325;SDS011;14032;52.510;7.342;2022-10-16T09:33:02;4.38;;;1.23;;
26325;SDS011;14032;52.510;7.342;2022-10-16T09:38:05;5.43;;;1.10;;
26325;SDS011;14032;52.510;7.342;2022-10-16T09:40:38;7.32;;;1.77;;
26325;SDS011;14032;52.510;7.342;2022-10-16T09:48:27;5.88;;;1.05;;
26325;SDS011;14032;52.510;7.342;2022-10-16T09:51:03;5.22;;;1.55;;
26325;SDS011;14032;52.510;7.342;2022-10-16T09:53:40;8.40;;;1.30;;
26325;SDS011;14032;52.510;7.342;2022-10-16T09:56:09;7.43;;;1.20;;
26325;SDS011;14032;52.510;7.342;2022-10-16T09:58:41;6.43;;;1.23;;
26325;SDS011;14032;52.510;7.342;2022-10-16T10:01:11;5.53;;;1.08;;
26325;SDS011;14032;52.510;7.342;2022-10-16T10:03:40;5.22;;;0.95;;
26325;SDS011;14032;52.510;7.342;2022-10-16T10:11:40;7.00;;;1.08;;
26325;SDS011;14032;52.510;7.342;2022-10-16T10:14:09;7.00;;;1.40;;
26325;SDS011;14032;52.510;7.342;2022-10-16T10:16:45;3.58;;;1.20;;
26325;SDS011;14032;52.510;7.342;2022-10-16T10:19:21;7.88;;;1.40;;
26325;SDS011;14032;52.510;7.342;2022-10-16T10:21:48;4.57;;;0.90;;
26325;SDS011;14032;52.510;7.342;2022-10-16T10:24:16;6.88;;;1.52;;
26325;SDS011;14032;52.510;7.342;2022-10-16T10:27:16;3.53;;;0.95;;
26325;SDS011;14032;52.510;7.342;2022-10-16T10:40:46;10.30;;;1.42;;
26325;SDS011;14032;52.510;7.342;2022-10-16T10:45:58;8.38;;;1.80;;
26325;SDS011;14032;52.510;7.342;2022-10-16T10:48:44;8.95;;;1.88;;
26325;SDS011;14032;52.510;7.342;2022-10-16T10:57:06;9.18;;;1.50;;
26325;SDS011;14032;52.510;7.342;2022-10-16T11:00:02;8.07;;;1.63;;
26325;SDS011;14032;52.510;7.342;2022-10-16T11:07:59;9.93;;;2.08;;
26325;SDS011;14032;52.510;7.342;2022-10-16T11:13:28;12.52;;;2.38;;
26325;SDS011;14032;52.510;7.342;2022-10-16T11:16:03;6.50;;;1.60;;
26325;SDS011;14032;52.510;7.342;2022-10-16T11:21:13;8.43;;;1.85;;
26325;SDS011;14032;52.510;7.342;2022-10-16T11:26:15;10.25;;;1.48;;
26325;SDS011;14032;52.510;7.342;2022-10-16T11:28:49;10.17;;;1.70;;
26325;SDS011;14032;52.510;7.342;2022-10-16T11:31:22;7.82;;;1.55;;
26325;SDS011;14032;52.510;7.342;2022-10-16T11:33:58;8.18;;;1.60;;
26325;SDS011;14032;52.510;7.342;2022-10-16T11:37:19;13.75;;;1.80;;
26325;SDS011;14032;52.510;7.342;2022-10-16T11:39:42;8.73;;;1.40;;
26325;SDS011;14032;52.510;7.342;2022-10-16T11:42:10;6.55;;;1.45;;
26325;SDS011;14032;52.510;7.342;2022-10-16T11:47:40;7.50;;;1.75;;
26325;SDS011;14032;52.510;7.342;2022-10-16T11:50:25;9.18;;;1.75;;
26325;SDS011;14032;52.510;7.342;2022-10-16T11:53:16;13.52;;;2.35;;
26325;SDS011;14032;52.510;7.342;2022-10-16T11:56:41;10.25;;;1.70;;
26325;SDS011;14032;52.510;7.342;2022-10-16T12:04:49;9.48;;;1.75;;
26325;SDS011;14032;52.510;7.342;2022-10-16T12:07:35;12.05;;;1.65;;
26325;SDS011;14032;52.510;7.342;2022-10-16T12:10:25;9.40;;;1.42;;
26325;SDS011;14032;52.510;7.342;2022-10-16T12:12:53;7.82;;;1.75;;
26325;SDS011;14032;52.510;7.342;2022-10-16T12:15:26;13.90;;;2.30;;
26325;SDS011;14032;52.510;7.342;2022-10-16T12:17:56;9.68;;;1.35;;
26325;SDS011;14032;52.510;7.342;2022-10-16T12:20:31;7.35;;;1.75;;
26325;SDS011;14032;52.510;7.342;2022-10-16T12:23:04;8.50;;;1.77;;
26325;SDS011;14032;52.510;7.342;2022-10-16T12:25:38;8.43;;;1.80;;
26325;SDS011;14032;52.510;7.342;2022-10-16T12:30:40;11.98;;;2.47;;
26325;SDS011;14032;52.510;7.342;2022-10-16T12:35:46;10.52;;;1.92;;
26325;SDS011;14032;52.510;7.342;2022-10-16T12:38:17;8.85;;;1.80;;
26325;SDS011;14032;52.510;7.342;2022-10-16T12:40:45;11.15;;;1.85;;
26325;SDS011;14032;52.510;7.342;2022-10-16T12:45:45;11.52;;;1.52;;
26325;SDS011;14032;52.510;7.342;2022-10-16T12:48:19;11.50;;;2.05;;
26325;SDS011;14032;52.510;7.342;2022-10-16T12:50:46;11.30;;;1.50;;
26325;SDS011;14032;52.510;7.342;2022-10-16T12:53:23;17.13;;;2.85;;
26325;SDS011;14032;52.510;7.342;2022-10-16T13:09:36;9.23;;;1.50;;
26325;SDS011;14032;52.510;7.342;2022-10-16T13:12:21;10.18;;;1.75;;
26325;SDS011;14032;52.510;7.342;2022-10-16T13:15:57;6.80;;;1.45;;
26325;SDS011;14032;52.510;7.342;2022-10-16T13:18:13;14.73;;;1.67;;
26325;SDS011;14032;52.510;7.342;2022-10-16T13:28:38;12.50;;;1.87;;
26325;SDS011;14032;52.510;7.342;2022-10-16T13:31:04;8.57;;;1.90;;
26325;SDS011;14032;52.510;7.342;2022-10-16T13:33:42;7.70;;;1.30;;
26325;SDS011;14032;52.510;7.342;2022-10-16T13:36:23;7.85;;;1.83;;
26325;SDS011;14032;52.510;7.342;2022-10-16T13:39:10;7.38;;;1.42;;
26325;SDS011;14032;52.510;7.342;2022-10-16T13:41:42;11.02;;;1.88;;
26325;SDS011;14032;52.510;7.342;2022-10-16T13:44:17;12.20;;;2.05;;
26325;SDS011;14032;52.510;7.342;2022-10-16T13:46:45;10.55;;;1.92;;
26325;SDS011;14032;52.510;7.342;2022-10-16T13:49:12;9.23;;;1.70;;
26325;SDS011;14032;52.510;7.342;2022-10-16T13:51:40;12.48;;;1.73;;
26325;SDS011;14032;52.510;7.342;2022-10-16T13:54:07;9.45;;;1.98;;
26325;SDS011;14032;52.510;7.342;2022-10-16T13:56:35;12.63;;;2.10;;
26325;SDS011;14032;52.510;7.342;2022-10-16T13:59:04;13.20;;;2.08;;
26325;SDS011;14032;52.510;7.342;2022-10-16T14:01:33;9.95;;;1.85;;
26325;SDS011;14032;52.510;7.342;2022-10-16T14:04:08;13.90;;;1.70;;
26325;SDS011;14032;52.510;7.342;2022-10-16T14:06:36;8.57;;;1.63;;
26325;SDS011;14032;52.510;7.342;2022-10-16T14:11:53;8.80;;;1.92;;
26325;SDS011;14032;52.510;7.342;2022-10-16T14:14:25;12.98;;;2.20;;
26325;SDS011;14032;52.510;7.342;2022-10-16T14:16:56;15.63;;;2.13;;
26325;SDS011;14032;52.510;7.342;2022-10-16T14:19:23;7.20;;;1.52;;
26325;SDS011;14032;52.510;7.342;2022-10-16T14:21:52;15.38;;;2.45;;
26325;SDS011;14032;52.510;7.342;2022-10-16T14:24:31;5.35;;;1.20;;
26325;SDS011;14032;52.510;7.342;2022-10-16T14:26:58;10.05;;;2.05;;
26325;SDS011;14032;52.510;7.342;2022-10-16T14:29:25;11.80;;;2.13;;
26325;SDS011;14032;52.510;7.342;2022-10-16T14:34:33;16.10;;;1.75;;
26325;SDS011;14032;52.510;7.342;2022-10-16T14:39:35;21.25;;;2.78;;
26325;SDS011;14032;52.510;7.342;2022-10-16T14:42:01;9.18;;;1.52;;
26325;SDS011;14032;52.510;7.342;2022-10-16T14:44:28;12.02;;;2.03;;
26325;SDS011;14032;52.510;7.342;2022-10-16T14:46:56;6.63;;;1.38;;
26325;SDS011;14032;52.510;7.342;2022-10-16T14:49:22;7.93;;;1.75;;
26325;SDS011;14032;52.510;7.342;2022-10-16T14:51:49;8.57;;;1.88;;
26325;SDS011;14032;52.510;7.342;2022-10-16T14:54:15;8.05;;;1.80;;
26325;SDS011;14032;52.510;7.342;2022-10-16T14:59:15;12.00;;;2.53;;
26325;SDS011;14032;52.510;7.342;2022-10-16T15:01:44;9.13;;;1.75;;
26325;SDS011;14032;52.510;7.342;2022-10-16T15:04:11;11.20;;;1.98;;
26325;SDS011;14032;52.510;7.342;2022-10-16T15:06:37;11.63;;;1.88;;
26325;SDS011;14032;52.510;7.342;2022-10-16T15:09:03;41.05;;;16.25;;
26325;SDS011;14032;52.510;7.342;2022-10-16T15:11:29;16.10;;;4.10;;
26325;SDS011;14032;52.510;7.342;2022-10-16T15:14:00;9.85;;;1.80;;
26325;SDS011;14032;52.510;7.342;2022-10-16T15:16:26;22.67;;;6.63;;
26325;SDS011;14032;52.510;7.342;2022-10-16T15:18:51;18.42;;;3.78;;
26325;SDS011;14032;52.510;7.342;2022-10-16T15:21:25;34.88;;;15.48;;
26325;SDS011;14032;52.510;7.342;2022-10-16T15:23:56;12.23;;;3.40;;
26325;SDS011;14032;52.510;7.342;2022-10-16T15:26:23;15.85;;;4.95;;
26325;SDS011;14032;52.510;7.342;2022-10-16T15:28:50;14.30;;;3.22;;
26325;SDS011;14032;52.510;7.342;2022-10-16T15:31:16;19.63;;;3.72;;
26325;SDS011;14032;52.510;7.342;2022-10-16T15:33:42;16.35;;;5.20;;
26325;SDS011;14032;52.510;7.342;2022-10-16T15:36:08;19.17;;;8.65;;
26325;SDS011;14032;52.510;7.342;2022-10-16T15:38:34;21.17;;;12.93;;
26325;SDS011;14032;52.510;7.342;2022-10-16T15:41:00;29.13;;;15.55;;
26325;SDS011;14032;52.510;7.342;2022-10-16T15:43:26;36.22;;;17.60;;
26325;SDS011;14032;52.510;7.342;2022-10-16T15:45:59;20.02;;;8.68;;
26325;SDS011;14032;52.510;7.342;2022-10-16T15:48:27;13.95;;;3.50;;
26325;SDS011;14032;52.510;7.342;2022-10-16T15:50:54;12.82;;;3.33;;
26325;SDS011;14032;52.510;7.342;2022-10-16T15:53:19;13.73;;;3.35;;
26325;SDS011;14032;52.510;7.342;2022-10-16T15:55:45;13.38;;;3.60;;
26325;SDS011;14032;52.510;7.342;2022-10-16T15:58:10;9.55;;;2.55;;
26325;SDS011;14032;52.510;7.342;2022-10-16T16:00:36;10.55;;;2.80;;
26325;SDS011;14032;52.510;7.342;2022-10-16T16:03:03;10.80;;;2.67;;
26325;SDS011;14032;52.510;7.342;2022-10-16T16:05:29;8.60;;;2.08;;
26325;SDS011;14032;52.510;7.342;2022-10-16T16:07:55;8.75;;;2.30;;
26325;SDS011;14032;52.510;7.342;2022-10-16T16:10:21;12.02;;;2.42;;
26325;SDS011;14032;52.510;7.342;2022-10-16T16:12:47;8.35;;;2.45;;
26325;SDS011;14032;52.510;7.342;2022-10-16T16:15:20;9.05;;;2.50;;
26325;SDS011;14032;52.510;7.342;2022-10-16T16:17:47;17.42;;;3.80;;
26325;SDS011;14032;52.510;7.342;2022-10-16T16:20:13;11.88;;;2.90;;
26325;SDS011;14032;52.510;7.342;2022-10-16T16:22:38;17.80;;;2.97;;
26325;SDS011;14032;52.510;7.342;2022-10-16T16:25:07;10.95;;;2.10;;
26325;SDS011;14032;52.510;7.342;2022-10-16T16:27:33;11.57;;;2.60;;
26325;SDS011;14032;52.510;7.342;2022-10-16T16:30:02;14.80;;;3.00;;
26325;SDS011;14032;52.510;7.342;2022-10-16T16:32:31;11.82;;;2.30;;
26325;SDS011;14032;52.510;7.342;2022-10-16T16:37:30;7.75;;;2.03;;
26325;SDS011;14032;52.510;7.342;2022-10-16T16:39:56;8.50;;;2.10;;
26325;SDS011;14032;52.510;7.342;2022-10-16T16:42:24;8.05;;;2.42;;
26325;SDS011;14032;52.510;7.342;2022-10-16T16:44:50;12.68;;;3.97;;
26325;SDS011;14032;52.510;7.342;2022-10-16T16:47:16;18.80;;;6.32;;
26325;SDS011;14032;52.510;7.342;2022-10-16T16:49:42;14.40;;;5.47;;
26325;SDS011;14032;52.510;7.342;2022-10-16T16:52:10;14.32;;;4.20;;
26325;SDS011;14032;52.510;7.342;2022-10-16T16:54:36;10.30;;;3.38;;
26325;SDS011;14032;52.510;7.342;2022-10-16T16:57:02;13.20;;;3.25;;
26325;SDS011;14032;52.510;7.342;2022-10-16T16:59:29;7.97;;;2.40;;
26325;SDS011;14032;52.510;7.342;2022-10-16T17:02:00;15.30;;;3.05;;
26325;SDS011;14032;52.510;7.342;2022-10-16T17:04:28;13.98;;;2.63;;
26325;SDS011;14032;52.510;7.342;2022-10-16T17:06:54;12.13;;;2.53;;